sensor_id;sensor_type;location;lat;lon;timestamp;temperature;humidity
15630;DHT22;7914;50.842;0.166;2023-04-24T00:00:04;7.10;100.00
15630;DHT22;7914;50.842;0.166;2023-04-24T00:02:35;7.10;100.00
15630;DHT22;7914;50.842;0.166;2023-04-24T00:05:06;7.10;100.00
15630;DHT22;7914;50.842;0.166;2023-04-24T00:07:33;7.00;100.00
15630;DHT22;7914;50.842;0.166;2023-04-24T00:09:59;7.00;100.00
15630;DHT22;7914;50.842;0.166;2023-04-24T00:12:25;7.00;100.00
15630;DHT22;7914;50.842;0.166;2023-04-24T00:14:52;7.00;100.00
15630;DHT22;7914;50.842;0.166;2023-04-24T00:17:18;7.00;100.00
15630;DHT22;7914;50.842;0.166;2023-04-24T00:19:49;7.00;100.00
15630;DHT22;7914;50.842;0.166;2023-04-24T00:22:27;7.10;100.00
15630;DHT22;7914;50.842;0.166;2023-04-24T00:24:53;7.10;100.00
15630;DHT22;7914;50.842;0.166;2023-04-24T00:27:19;7.10;100.00
15630;DHT22;7914;50.842;0.166;2023-04-24T00:29:45;7.10;100.00
15630;DHT22;7914;50.842;0.166;2023-04-24T00:32:11;7.10;100.00
15630;DHT22;7914;50.842;0.166;2023-04-24T00:34:37;7.00;100.00
15630;DHT22;7914;50.842;0.166;2023-04-24T00:37:02;7.00;100.00
15630;DHT22;7914;50.842;0.166;2023-04-24T00:39:28;7.00;100.00
15630;DHT22;7914;50.842;0.166;2023-04-24T00:41:54;6.90;100.00
15630;DHT22;7914;50.842;0.166;2023-04-24T00:44:20;6.90;100.00
15630;DHT22;7914;50.842;0.166;2023-04-24T00:46:47;6.80;100.00
15630;DHT22;7914;50.842;0.166;2023-04-24T00:49:18;6.80;100.00
15630;DHT22;7914;50.842;0.166;2023-04-24T00:51:44;6.80;100.00
15630;DHT22;7914;50.842;0.166;2023-04-24T00:54:12;6.70;100.00
15630;DHT22;7914;50.842;0.166;2023-04-24T00:56:37;6.70;100.00
15630;DHT22;7914;50.842;0.166;2023-04-24T00:59:04;6.60;100.00
15630;DHT22;7914;50.842;0.166;2023-04-24T01:01:30;6.70;100.00
15630;DHT22;7914;50.842;0.166;2023-04-24T01:03:56;6.70;100.00
15630;DHT22;7914;50.842;0.166;2023-04-24T01:06:23;6.70;100.00
15630;DHT22;7914;50.842;0.166;2023-04-24T01:08:52;6.60;100.00
15630;DHT22;7914;50.842;0.166;2023-04-24T01:11:18;6.60;100.00
15630;DHT22;7914;50.842;0.166;2023-04-24T01:13:45;6.60;100.00
15630;DHT22;7914;50.842;0.166;2023-04-24T01:16:11;6.60;100.00
15630;DHT22;7914;50.842;0.166;2023-04-24T01:18:37;6.50;100.00
15630;DHT22;7914;50.842;0.166;2023-04-24T01:21:04;6.50;100.00
15630;DHT22;7914;50.842;0.166;2023-04-24T01:23:30;6.50;100.00
15630;DHT22;7914;50.842;0.166;2023-04-24T01:25:55;6.50;100.00
15630;DHT22;7914;50.842;0.166;2023-04-24T01:28:22;6.50;100.00
15630;DHT22;7914;50.842;0.166;2023-04-24T01:30:48;6.50;100.00
15630;DHT22;7914;50.842;0.166;2023-04-24T01:33:14;6.50;100.00
15630;DHT22;7914;50.842;0.166;2023-04-24T01:35:40;6.50;100.00
15630;DHT22;7914;50.842;0.166;2023-04-24T01:38:06;6.60;100.00
15630;DHT22;7914;50.842;0.166;2023-04-24T01:40:32;6.60;100.00
15630;DHT22;7914;50.842;0.166;2023-04-24T01:42:58;6.70;100.00
15630;DHT22;7914;50.842;0.166;2023-04-24T01:45:24;6.70;100.00
15630;DHT22;7914;50.842;0.166;2023-04-24T01:47:50;6.70;100.00
15630;DHT22;7914;50.842;0.166;2023-04-24T01:50:16;6.70;100.00
15630;DHT22;7914;50.842;0.166;2023-04-24T01:52:42;6.60;100.00
15630;DHT22;7914;50.842;0.166;2023-04-24T01:55:08;6.50;100.00
15630;DHT22;7914;50.842;0.166;2023-04-24T01:57:35;6.50;100.00
15630;DHT22;7914;50.842;0.166;2023-04-24T02:00:01;6.40;100.00
15630;DHT22;7914;50.842;0.166;2023-04-24T02:02:29;6.40;100.00
15630;DHT22;7914;50.842;0.166;2023-04-24T02:04:55;6.50;100.00
15630;DHT22;7914;50.842;0.166;2023-04-24T02:07:22;6.50;100.00
15630;DHT22;7914;50.842;0.166;2023-04-24T02:09:48;6.50;100.00
15630;DHT22;7914;50.842;0.166;2023-04-24T02:12:14;6.50;100.00
15630;DHT22;7914;50.842;0.166;2023-04-24T02:14:40;6.50;100.00
15630;DHT22;7914;50.842;0.166;2023-04-24T02:17:08;6.50;100.00
15630;DHT22;7914;50.842;0.166;2023-04-24T02:19:34;6.60;100.00
15630;DHT22;7914;50.842;0.166;2023-04-24T02:21:59;6.50;100.00
15630;DHT22;7914;50.842;0.166;2023-04-24T02:24:25;6.40;100.00
15630;DHT22;7914;50.842;0.166;2023-04-24T02:26:51;6.40;100.00
15630;DHT22;7914;50.842;0.166;2023-04-24T02:29:17;6.40;100.00
15630;DHT22;7914;50.842;0.166;2023-04-24T02:31:43;6.40;100.00
15630;DHT22;7914;50.842;0.166;2023-04-24T02:34:09;6.40;100.00
15630;DHT22;7914;50.842;0.166;2023-04-24T02:36:34;6.40;100.00
15630;DHT22;7914;50.842;0.166;2023-04-24T02:39:00;6.30;100.00
15630;DHT22;7914;50.842;0.166;2023-04-24T02:41:26;6.30;100.00
15630;DHT22;7914;50.842;0.166;2023-04-24T02:43:57;6.30;100.00
15630;DHT22;7914;50.842;0.166;2023-04-24T02:46:23;6.40;100.00
15630;DHT22;7914;50.842;0.166;2023-04-24T02:48:49;6.30;100.00
15630;DHT22;7914;50.842;0.166;2023-04-24T02:51:14;6.30;100.00
15630;DHT22;7914;50.842;0.166;2023-04-24T02:53:40;6.20;100.00
15630;DHT22;7914;50.842;0.166;2023-04-24T02:56:06;6.30;100.00
15630;DHT22;7914;50.842;0.166;2023-04-24T02:58:31;6.20;100.00
15630;DHT22;7914;50.842;0.166;2023-04-24T03:00:57;6.30;100.00
15630;DHT22;7914;50.842;0.166;2023-04-24T03:03:23;6.30;100.00
15630;DHT22;7914;50.842;0.166;2023-04-24T03:05:49;6.30;100.00
15630;DHT22;7914;50.842;0.166;2023-04-24T03:08:16;6.30;100.00
15630;DHT22;7914;50.842;0.166;2023-04-24T03:10:41;6.30;100.00
15630;DHT22;7914;50.842;0.166;2023-04-24T03:13:07;6.30;100.00
15630;DHT22;7914;50.842;0.166;2023-04-24T03:15:33;6.40;100.00
15630;DHT22;7914;50.842;0.166;2023-04-24T03:17:58;6.50;100.00
15630;DHT22;7914;50.842;0.166;2023-04-24T03:20:26;6.60;100.00
15630;DHT22;7914;50.842;0.166;2023-04-24T03:22:51;6.60;100.00
15630;DHT22;7914;50.842;0.166;2023-04-24T03:25:17;6.70;100.00
15630;DHT22;7914;50.842;0.166;2023-04-24T03:27:43;6.70;100.00
15630;DHT22;7914;50.842;0.166;2023-04-24T03:30:09;6.70;100.00
15630;DHT22;7914;50.842;0.166;2023-04-24T03:32:35;6.70;100.00
15630;DHT22;7914;50.842;0.166;2023-04-24T03:35:00;6.70;100.00
15630;DHT22;7914;50.842;0.166;2023-04-24T03:37:26;6.70;100.00
15630;DHT22;7914;50.842;0.166;2023-04-24T03:39:52;6.70;100.00
15630;DHT22;7914;50.842;0.166;2023-04-24T03:42:18;6.70;100.00
15630;DHT22;7914;50.842;0.166;2023-04-24T03:44:44;6.70;100.00
15630;DHT22;7914;50.842;0.166;2023-04-24T03:47:09;6.70;100.00
15630;DHT22;7914;50.842;0.166;2023-04-24T03:49:35;6.70;100.00
15630;DHT22;7914;50.842;0.166;2023-04-24T03:52:01;6.80;100.00
15630;DHT22;7914;50.842;0.166;2023-04-24T03:54:27;6.70;100.00
15630;DHT22;7914;50.842;0.166;2023-04-24T03:56:53;6.70;100.00
15630;DHT22;7914;50.842;0.166;2023-04-24T03:59:18;6.60;100.00
15630;DHT22;7914;50.842;0.166;2023-04-24T04:01:44;6.50;100.00
15630;DHT22;7914;50.842;0.166;2023-04-24T04:04:11;6.50;100.00
15630;DHT22;7914;50.842;0.166;2023-04-24T04:06:37;6.40;100.00
15630;DHT22;7914;50.842;0.166;2023-04-24T04:09:03;6.30;100.00
15630;DHT22;7914;50.842;0.166;2023-04-24T04:11:29;6.40;100.00
15630;DHT22;7914;50.842;0.166;2023-04-24T04:13:56;6.30;100.00
15630;DHT22;7914;50.842;0.166;2023-04-24T04:16:22;6.20;100.00
15630;DHT22;7914;50.842;0.166;2023-04-24T04:18:48;6.20;100.00
15630;DHT22;7914;50.842;0.166;2023-04-24T04:21:14;6.20;100.00
15630;DHT22;7914;50.842;0.166;2023-04-24T04:23:39;6.10;100.00
15630;DHT22;7914;50.842;0.166;2023-04-24T04:26:05;6.00;100.00
15630;DHT22;7914;50.842;0.166;2023-04-24T04:28:32;6.00;100.00
15630;DHT22;7914;50.842;0.166;2023-04-24T04:30:57;6.00;100.00
15630;DHT22;7914;50.842;0.166;2023-04-24T04:33:26;6.00;100.00
15630;DHT22;7914;50.842;0.166;2023-04-24T04:35:52;6.10;100.00
15630;DHT22;7914;50.842;0.166;2023-04-24T04:38:19;6.20;100.00
15630;DHT22;7914;50.842;0.166;2023-04-24T04:40:45;6.30;100.00
15630;DHT22;7914;50.842;0.166;2023-04-24T04:43:11;6.40;100.00
15630;DHT22;7914;50.842;0.166;2023-04-24T04:45:38;6.50;100.00
15630;DHT22;7914;50.842;0.166;2023-04-24T04:48:05;6.50;100.00
15630;DHT22;7914;50.842;0.166;2023-04-24T04:50:33;6.60;100.00
15630;DHT22;7914;50.842;0.166;2023-04-24T04:52:59;6.60;100.00
15630;DHT22;7914;50.842;0.166;2023-04-24T04:55:25;6.70;100.00
15630;DHT22;7914;50.842;0.166;2023-04-24T04:57:51;6.70;100.00
15630;DHT22;7914;50.842;0.166;2023-04-24T05:00:17;6.70;100.00
15630;DHT22;7914;50.842;0.166;2023-04-24T05:02:43;6.80;100.00
15630;DHT22;7914;50.842;0.166;2023-04-24T05:05:09;6.70;100.00
15630;DHT22;7914;50.842;0.166;2023-04-24T05:07:35;6.70;100.00
15630;DHT22;7914;50.842;0.166;2023-04-24T05:10:01;6.60;100.00
15630;DHT22;7914;50.842;0.166;2023-04-24T05:12:26;6.70;100.00
15630;DHT22;7914;50.842;0.166;2023-04-24T05:14:52;6.70;100.00
15630;DHT22;7914;50.842;0.166;2023-04-24T05:17:18;6.80;100.00
15630;DHT22;7914;50.842;0.166;2023-04-24T05:19:44;6.80;100.00
15630;DHT22;7914;50.842;0.166;2023-04-24T05:22:10;6.90;100.00
15630;DHT22;7914;50.842;0.166;2023-04-24T05:24:37;7.00;100.00
15630;DHT22;7914;50.842;0.166;2023-04-24T05:27:04;7.20;100.00
15630;DHT22;7914;50.842;0.166;2023-04-24T05:29:32;7.80;100.00
15630;DHT22;7914;50.842;0.166;2023-04-24T05:31:59;7.90;100.00
15630;DHT22;7914;50.842;0.166;2023-04-24T05:34:25;7.80;100.00
15630;DHT22;7914;50.842;0.166;2023-04-24T05:36:51;7.70;100.00
15630;DHT22;7914;50.842;0.166;2023-04-24T05:39:17;7.80;100.00
15630;DHT22;7914;50.842;0.166;2023-04-24T05:41:43;7.80;100.00
15630;DHT22;7914;50.842;0.166;2023-04-24T05:44:09;7.80;100.00
15630;DHT22;7914;50.842;0.166;2023-04-24T05:46:35;7.90;100.00
15630;DHT22;7914;50.842;0.166;2023-04-24T05:49:01;7.90;100.00
15630;DHT22;7914;50.842;0.166;2023-04-24T05:51:27;8.10;100.00
15630;DHT22;7914;50.842;0.166;2023-04-24T05:53:53;8.20;100.00
15630;DHT22;7914;50.842;0.166;2023-04-24T05:56:19;8.50;100.00
15630;DHT22;7914;50.842;0.166;2023-04-24T05:58:46;8.80;100.00
15630;DHT22;7914;50.842;0.166;2023-04-24T06:01:12;9.20;100.00
15630;DHT22;7914;50.842;0.166;2023-04-24T06:03:38;9.60;99.30
15630;DHT22;7914;50.842;0.166;2023-04-24T06:06:06;10.30;96.10
15630;DHT22;7914;50.842;0.166;2023-04-24T06:08:34;10.80;92.50
15630;DHT22;7914;50.842;0.166;2023-04-24T06:10:59;11.10;91.30
15630;DHT22;7914;50.842;0.166;2023-04-24T06:13:25;11.00;90.20
15630;DHT22;7914;50.842;0.166;2023-04-24T06:15:52;10.50;92.50
15630;DHT22;7914;50.842;0.166;2023-04-24T06:18:18;10.60;92.20
15630;DHT22;7914;50.842;0.166;2023-04-24T06:20:45;10.50;92.30
15630;DHT22;7914;50.842;0.166;2023-04-24T06:23:11;10.60;91.30
15630;DHT22;7914;50.842;0.166;2023-04-24T06:25:37;11.00;89.40
15630;DHT22;7914;50.842;0.166;2023-04-24T06:28:03;11.00;89.10
15630;DHT22;7914;50.842;0.166;2023-04-24T06:30:29;11.00;89.90
15630;DHT22;7914;50.842;0.166;2023-04-24T06:32:55;10.70;91.20
15630;DHT22;7914;50.842;0.166;2023-04-24T06:35:20;10.50;90.70
15630;DHT22;7914;50.842;0.166;2023-04-24T06:37:46;10.50;91.10
15630;DHT22;7914;50.842;0.166;2023-04-24T06:40:12;10.80;89.70
15630;DHT22;7914;50.842;0.166;2023-04-24T06:42:38;11.00;90.30
15630;DHT22;7914;50.842;0.166;2023-04-24T06:45:04;11.30;89.00
15630;DHT22;7914;50.842;0.166;2023-04-24T06:47:30;11.80;86.90
15630;DHT22;7914;50.842;0.166;2023-04-24T06:49:56;12.50;83.00
15630;DHT22;7914;50.842;0.166;2023-04-24T06:52:22;12.40;82.50
15630;DHT22;7914;50.842;0.166;2023-04-24T06:54:48;12.00;83.30
15630;DHT22;7914;50.842;0.166;2023-04-24T06:57:14;11.60;85.30
15630;DHT22;7914;50.842;0.166;2023-04-24T06:59:41;11.20;85.50
15630;DHT22;7914;50.842;0.166;2023-04-24T07:02:07;11.10;89.10
15630;DHT22;7914;50.842;0.166;2023-04-24T07:04:33;11.20;89.40
15630;DHT22;7914;50.842;0.166;2023-04-24T07:06:58;11.70;85.80
15630;DHT22;7914;50.842;0.166;2023-04-24T07:09:25;12.20;84.20
15630;DHT22;7914;50.842;0.166;2023-04-24T07:11:53;12.00;83.50
15630;DHT22;7914;50.842;0.166;2023-04-24T07:14:20;11.60;86.20
15630;DHT22;7914;50.842;0.166;2023-04-24T07:16:45;11.40;87.70
15630;DHT22;7914;50.842;0.166;2023-04-24T07:19:12;11.60;88.00
15630;DHT22;7914;50.842;0.166;2023-04-24T07:21:38;12.00;85.10
15630;DHT22;7914;50.842;0.166;2023-04-24T07:24:04;12.30;83.50
15630;DHT22;7914;50.842;0.166;2023-04-24T07:26:30;12.50;83.50
15630;DHT22;7914;50.842;0.166;2023-04-24T07:28:56;12.40;82.40
15630;DHT22;7914;50.842;0.166;2023-04-24T07:31:22;12.10;85.50
15630;DHT22;7914;50.842;0.166;2023-04-24T07:33:48;12.40;84.50
15630;DHT22;7914;50.842;0.166;2023-04-24T07:36:14;12.40;84.80
15630;DHT22;7914;50.842;0.166;2023-04-24T07:38:45;12.40;84.50
15630;DHT22;7914;50.842;0.166;2023-04-24T07:41:12;12.30;84.30
15630;DHT22;7914;50.842;0.166;2023-04-24T07:43:38;12.30;84.90
15630;DHT22;7914;50.842;0.166;2023-04-24T07:46:03;12.20;83.60
15630;DHT22;7914;50.842;0.166;2023-04-24T07:48:29;12.20;83.40
15630;DHT22;7914;50.842;0.166;2023-04-24T07:50:55;12.10;83.60
15630;DHT22;7914;50.842;0.166;2023-04-24T07:53:20;12.20;85.80
15630;DHT22;7914;50.842;0.166;2023-04-24T07:55:46;12.40;81.50
15630;DHT22;7914;50.842;0.166;2023-04-24T07:58:12;12.50;81.40
15630;DHT22;7914;50.842;0.166;2023-04-24T08:00:38;12.40;83.00
15630;DHT22;7914;50.842;0.166;2023-04-24T08:03:03;12.70;82.30
15630;DHT22;7914;50.842;0.166;2023-04-24T08:05:29;12.90;81.70
15630;DHT22;7914;50.842;0.166;2023-04-24T08:07:55;13.10;80.70
15630;DHT22;7914;50.842;0.166;2023-04-24T08:10:24;13.10;82.60
15630;DHT22;7914;50.842;0.166;2023-04-24T08:12:50;13.20;80.30
15630;DHT22;7914;50.842;0.166;2023-04-24T08:15:16;13.20;79.10
15630;DHT22;7914;50.842;0.166;2023-04-24T08:17:42;13.20;79.70
15630;DHT22;7914;50.842;0.166;2023-04-24T08:20:09;13.50;79.70
15630;DHT22;7914;50.842;0.166;2023-04-24T08:22:39;13.60;78.90
15630;DHT22;7914;50.842;0.166;2023-04-24T20:37:44;7.20;100.00
15630;DHT22;7914;50.842;0.166;2023-04-24T20:40:10;7.20;100.00
15630;DHT22;7914;50.842;0.166;2023-04-24T20:42:38;7.10;100.00
15630;DHT22;7914;50.842;0.166;2023-04-24T20:45:04;7.20;100.00
15630;DHT22;7914;50.842;0.166;2023-04-24T20:47:31;7.20;100.00
15630;DHT22;7914;50.842;0.166;2023-04-24T20:49:56;7.10;100.00
15630;DHT22;7914;50.842;0.166;2023-04-24T20:52:22;7.20;100.00
15630;DHT22;7914;50.842;0.166;2023-04-24T20:54:48;7.20;100.00
15630;DHT22;7914;50.842;0.166;2023-04-24T20:57:14;7.10;100.00
15630;DHT22;7914;50.842;0.166;2023-04-24T20:59:40;7.10;100.00
15630;DHT22;7914;50.842;0.166;2023-04-24T21:02:06;7.00;100.00
15630;DHT22;7914;50.842;0.166;2023-04-24T21:04:31;6.90;100.00
15630;DHT22;7914;50.842;0.166;2023-04-24T21:06:59;6.90;100.00
15630;DHT22;7914;50.842;0.166;2023-04-24T21:09:26;6.80;100.00
15630;DHT22;7914;50.842;0.166;2023-04-24T21:11:52;6.80;100.00
15630;DHT22;7914;50.842;0.166;2023-04-24T21:14:17;6.70;100.00
15630;DHT22;7914;50.842;0.166;2023-04-24T21:16:43;6.50;100.00
15630;DHT22;7914;50.842;0.166;2023-04-24T21:19:09;6.40;100.00
15630;DHT22;7914;50.842;0.166;2023-04-24T21:21:34;6.30;100.00
15630;DHT22;7914;50.842;0.166;2023-04-24T21:24:00;6.20;100.00
15630;DHT22;7914;50.842;0.166;2023-04-24T21:26:28;6.20;100.00
15630;DHT22;7914;50.842;0.166;2023-04-24T21:28:54;6.20;100.00
15630;DHT22;7914;50.842;0.166;2023-04-24T21:31:20;6.10;100.00
15630;DHT22;7914;50.842;0.166;2023-04-24T21:33:46;6.20;100.00
15630;DHT22;7914;50.842;0.166;2023-04-24T21:36:11;6.10;100.00
15630;DHT22;7914;50.842;0.166;2023-04-24T21:38:37;6.10;100.00
15630;DHT22;7914;50.842;0.166;2023-04-24T21:41:04;6.10;100.00
15630;DHT22;7914;50.842;0.166;2023-04-24T21:43:30;6.10;100.00
15630;DHT22;7914;50.842;0.166;2023-04-24T21:45:56;6.10;100.00
15630;DHT22;7914;50.842;0.166;2023-04-24T21:48:22;6.10;100.00
15630;DHT22;7914;50.842;0.166;2023-04-24T21:50:47;6.10;100.00
15630;DHT22;7914;50.842;0.166;2023-04-24T21:53:13;6.10;100.00
15630;DHT22;7914;50.842;0.166;2023-04-24T21:55:40;6.10;100.00
15630;DHT22;7914;50.842;0.166;2023-04-24T21:58:05;6.10;100.00
15630;DHT22;7914;50.842;0.166;2023-04-24T22:00:31;6.10;100.00
15630;DHT22;7914;50.842;0.166;2023-04-24T22:02:57;6.20;100.00
15630;DHT22;7914;50.842;0.166;2023-04-24T22:05:23;6.10;100.00
15630;DHT22;7914;50.842;0.166;2023-04-24T22:07:49;6.10;100.00
15630;DHT22;7914;50.842;0.166;2023-04-24T22:10:15;6.00;100.00
15630;DHT22;7914;50.842;0.166;2023-04-24T22:12:42;6.00;100.00
15630;DHT22;7914;50.842;0.166;2023-04-24T22:15:09;6.10;100.00
15630;DHT22;7914;50.842;0.166;2023-04-24T22:17:35;6.10;100.00
15630;DHT22;7914;50.842;0.166;2023-04-24T22:20:04;6.00;100.00
15630;DHT22;7914;50.842;0.166;2023-04-24T22:22:32;6.00;100.00
15630;DHT22;7914;50.842;0.166;2023-04-24T22:24:58;5.90;100.00
15630;DHT22;7914;50.842;0.166;2023-04-24T22:27:24;5.90;100.00
15630;DHT22;7914;50.842;0.166;2023-04-24T22:29:50;5.90;100.00
15630;DHT22;7914;50.842;0.166;2023-04-24T22:32:16;6.00;100.00
15630;DHT22;7914;50.842;0.166;2023-04-24T22:34:42;6.00;100.00
15630;DHT22;7914;50.842;0.166;2023-04-24T22:37:09;6.00;100.00
15630;DHT22;7914;50.842;0.166;2023-04-24T22:39:34;6.00;100.00
15630;DHT22;7914;50.842;0.166;2023-04-24T22:42:00;5.90;100.00
15630;DHT22;7914;50.842;0.166;2023-04-24T22:44:27;5.90;100.00
15630;DHT22;7914;50.842;0.166;2023-04-24T22:46:52;6.00;100.00
15630;DHT22;7914;50.842;0.166;2023-04-24T22:49:18;6.00;100.00
15630;DHT22;7914;50.842;0.166;2023-04-24T22:51:45;6.00;100.00
15630;DHT22;7914;50.842;0.166;2023-04-24T22:54:12;6.10;100.00
15630;DHT22;7914;50.842;0.166;2023-04-24T22:56:38;6.10;100.00
15630;DHT22;7914;50.842;0.166;2023-04-24T22:59:04;6.10;100.00
15630;DHT22;7914;50.842;0.166;2023-04-24T23:01:31;6.10;100.00
15630;DHT22;7914;50.842;0.166;2023-04-24T23:03:56;6.10;100.00
15630;DHT22;7914;50.842;0.166;2023-04-24T23:06:22;6.10;100.00
15630;DHT22;7914;50.842;0.166;2023-04-24T23:08:48;6.10;100.00
15630;DHT22;7914;50.842;0.166;2023-04-24T23:11:13;6.00;100.00
15630;DHT22;7914;50.842;0.166;2023-04-24T23:13:39;6.10;100.00
15630;DHT22;7914;50.842;0.166;2023-04-24T23:16:05;6.10;100.00
15630;DHT22;7914;50.842;0.166;2023-04-24T23:18:31;6.10;100.00
15630;DHT22;7914;50.842;0.166;2023-04-24T23:20:57;6.10;100.00
15630;DHT22;7914;50.842;0.166;2023-04-24T23:23:23;6.10;100.00
15630;DHT22;7914;50.842;0.166;2023-04-24T23:25:49;6.20;100.00
15630;DHT22;7914;50.842;0.166;2023-04-24T23:28:14;6.10;100.00
15630;DHT22;7914;50.842;0.166;2023-04-24T23:30:40;6.10;100.00
15630;DHT22;7914;50.842;0.166;2023-04-24T23:33:06;6.20;100.00
15630;DHT22;7914;50.842;0.166;2023-04-24T23:35:31;6.20;100.00
15630;DHT22;7914;50.842;0.166;2023-04-24T23:37:57;6.10;100.00
15630;DHT22;7914;50.842;0.166;2023-04-24T23:40:23;6.10;100.00
15630;DHT22;7914;50.842;0.166;2023-04-24T23:42:48;6.20;100.00
15630;DHT22;7914;50.842;0.166;2023-04-24T23:45:15;6.10;100.00
15630;DHT22;7914;50.842;0.166;2023-04-24T23:47:40;6.10;100.00
15630;DHT22;7914;50.842;0.166;2023-04-24T23:50:06;6.10;100.00
15630;DHT22;7914;50.842;0.166;2023-04-24T23:52:32;6.20;100.00
15630;DHT22;7914;50.842;0.166;2023-04-24T23:55:01;6.10;100.00
15630;DHT22;7914;50.842;0.166;2023-04-24T23:57:27;6.10;100.00
15630;DHT22;7914;50.842;0.166;2023-04-24T23:59:53;6.10;100.00
